This is the latest recevied weather packets stored in our database for station/object ANJALA. If no packets are shown the sender has not sent any weather packets the latest 10 day(s).
| Time | Temp. | Humidity | Pressure | Rain* | Wind** | Luminosity | Snow |
|---|---|---|---|---|---|---|---|
| 1777958833 | 6.67° C | 91% | - | 0 mm | - | - | - |
| 1777957633 | 6.67° C | 91% | - | 0 mm | - | - | - |
| 1777956433 | 6.67° C | 92% | - | 0 mm | - | - | - |
| 1777955233 | 6.67° C | 92% | - | 0 mm | - | - | - |
| 1777954033 | 6.67° C | 93% | - | 0 mm | - | - | - |
| 1777934832 | 7.22° C | 95% | - | 0 mm | - | - | - |
| 1777933632 | 7.22° C | 95% | - | 0 mm | - | - | - |
| 1777932432 | 7.22° C | 96% | - | 0 mm | - | - | - |
| 1777931232 | 7.22° C | 96% | - | 0 mm | - | - | - |
| 1777930032 | 7.78° C | 95% | - | 0 mm | - | - | - |
| 1777928831 | 7.78° C | 95% | - | 0 mm | - | - | - |
| 1777925231 | 8.33° C | 96% | - | 0 mm | - | - | - |
| 1777922831 | 8.89° C | 96% | - | 0 mm | - | - | - |
| 1777920431 | 9.44° C | 91% | - | 0 mm | - | - | - |
| 1777919231 | 9.44° C | 91% | - | 0 mm | - | - | - |
| 1777918031 | 9.44° C | 92% | - | 0 mm | - | - | - |
| 1777915630 | 10.56° C | 88% | - | 0 mm | - | - | - |
| 1777912030 | 11.11° C | 85% | - | 0 mm | - | - | - |
| 1777910830 | 10.56° C | 89% | - | 0 mm | - | - | - |
| 1777907230 | 10.56° C | 91% | - | 0 mm | - | - | - |
| 1777904830 | 10° C | 97% | - | 0 mm | - | - | - |
| 1777903630 | 10° C | 96% | - | 0 mm | - | - | - |
| 1777901230 | 10° C | 96% | - | 1.27 mm | - | - | - |
| 1777900030 | 10° C | 97% | - | 1.27 mm | - | - | - |
| 1777898830 | 9.44° C | 96% | - | 1.27 mm | - | - | - |
* Rain latest hour (hover to see other rain measurements)
** Current wind speed in m/s (hover to see current wind gust speed)